createdAt,value
2022-08-12T00:00:20.781Z,84.68
2022-08-12T00:03:06.345Z,84.10
2022-08-12T00:06:01.970Z,84.50
2022-08-12T00:08:55.100Z,84.89
2022-08-12T00:11:42.317Z,83.75
2022-08-12T00:14:27.922Z,83.57
2022-08-12T00:17:14.176Z,82.65
2022-08-12T00:19:59.379Z,82.79
2022-08-12T00:22:45.755Z,82.77
2022-08-12T00:25:55.794Z,83.77
2022-08-12T00:28:46.718Z,83.54
2022-08-12T00:31:32.636Z,83.88
2022-08-12T00:34:18.038Z,84.48
2022-08-12T00:37:14.254Z,83.61
2022-08-12T00:40:01.076Z,83.65
2022-08-12T00:42:34.623Z,83.81
2022-08-12T00:45:01.308Z,83.77
2022-08-12T00:47:27.883Z,85.37
2022-08-12T00:49:55.898Z,85.29
2022-08-12T00:52:24.126Z,79.83
2022-08-12T00:54:59.076Z,81.52
2022-08-12T00:57:36.748Z,81.64
2022-08-12T01:00:17.340Z,81.45
2022-08-12T01:02:47.182Z,80.59
2022-08-12T01:05:35.558Z,80.01
2022-08-12T01:08:21.310Z,79.25
2022-08-12T01:11:09.564Z,79.66
2022-08-12T01:13:41.094Z,82.59
2022-08-12T01:16:09.329Z,84.50
2022-08-12T01:18:39.760Z,83.28
2022-08-12T01:21:09.296Z,83.18
2022-08-12T01:23:45.494Z,81.70
2022-08-12T01:26:18.130Z,79.69
2022-08-12T01:28:48.861Z,78.68
2022-08-12T01:31:19.097Z,79.56
2022-08-12T01:34:35.840Z,80.94
2022-08-12T01:36:59.616Z,80.67
2022-08-12T01:39:32.373Z,79.63
2022-08-12T01:42:07.414Z,81.04
2022-08-12T01:44:34.820Z,80.23
2022-08-12T01:47:41.122Z,82.69
2022-08-12T01:50:26.586Z,83.43
2022-08-12T01:53:11.285Z,83.75
2022-08-12T01:55:45.336Z,84.34
2022-08-12T01:58:20.886Z,83.07
2022-08-12T02:01:11.474Z,82.67
2022-08-12T02:04:13.619Z,83.61
2022-08-12T02:07:07.380Z,83.95
2022-08-12T02:10:49.869Z,83.28
2022-08-12T02:13:43.624Z,83.25
2022-08-12T02:16:32.878Z,82.93
2022-08-12T02:19:37.292Z,82.47
2022-08-12T02:22:12.239Z,81.93
2022-08-12T02:24:42.654Z,81.27
2022-08-12T02:27:12.822Z,83.21
2022-08-12T02:29:40.924Z,84.20
2022-08-12T02:32:08.689Z,85.06
2022-08-12T02:34:35.705Z,87.96
2022-08-12T02:37:04.015Z,91.06
2022-08-12T02:39:33.928Z,96.43
2022-08-12T02:42:04.774Z,100.00
2022-08-12T02:44:37.462Z,100.00
2022-08-12T02:47:06.543Z,100.00
2022-08-12T02:49:39.967Z,100.00
2022-08-12T02:52:10.279Z,100.00
2022-08-12T02:54:37.922Z,100.00
2022-08-12T02:57:06.311Z,100.00
2022-08-12T02:59:35.691Z,100.00
2022-08-12T03:02:04.198Z,100.00
2022-08-12T03:04:44.575Z,100.00
2022-08-12T03:07:18.326Z,100.00
2022-08-12T03:10:04.397Z,100.00
2022-08-12T03:12:36.017Z,100.00
2022-08-12T03:15:13.012Z,100.00
2022-08-12T03:18:26.214Z,100.00
2022-08-12T03:20:49.332Z,100.00
2022-08-12T03:23:29.317Z,100.00
2022-08-12T03:26:01.832Z,100.00
2022-08-12T03:28:49.962Z,100.00
2022-08-12T03:31:29.859Z,100.00
2022-08-12T03:34:03.267Z,100.00
2022-08-12T03:36:35.793Z,100.00
2022-08-12T03:39:15.490Z,100.00
2022-08-12T03:41:54.523Z,100.00
2022-08-12T03:44:45.583Z,100.00
2022-08-12T03:47:38.029Z,100.00
2022-08-12T03:50:23.434Z,100.00
2022-08-12T03:53:08.719Z,100.00
2022-08-12T03:55:54.657Z,100.00
2022-08-12T03:58:40.327Z,100.00
2022-08-12T04:01:07.907Z,100.00
2022-08-12T04:03:52.694Z,100.00
2022-08-12T04:06:34.521Z,100.00
2022-08-12T04:09:16.627Z,100.00
2022-08-12T04:12:03.902Z,100.00
2022-08-12T04:14:33.098Z,100.00
2022-08-12T04:17:00.367Z,100.00
2022-08-12T04:19:28.225Z,100.00
2022-08-12T04:22:01.721Z,100.00
2022-08-12T04:24:35.471Z,100.00
2022-08-12T04:27:05.716Z,100.00
2022-08-12T04:30:21.440Z,100.00
2022-08-12T04:32:19.332Z,100.00
2022-08-12T04:34:46.179Z,100.00
2022-08-12T04:37:13.520Z,100.00
2022-08-12T04:39:40.686Z,100.00
2022-08-12T04:42:07.851Z,100.00
2022-08-12T04:44:34.500Z,100.00
2022-08-12T04:47:01.391Z,100.00
2022-08-12T04:49:29.021Z,100.00
2022-08-12T04:51:59.373Z,100.00
2022-08-12T04:54:27.474Z,100.00
2022-08-12T04:57:03.236Z,100.00
2022-08-12T04:59:46.892Z,100.00
2022-08-12T05:02:21.635Z,100.00
2022-08-12T05:04:55.750Z,100.00
2022-08-12T05:07:24.442Z,100.00
2022-08-12T05:09:59.437Z,100.00
2022-08-12T05:12:34.290Z,100.00
2022-08-12T05:15:00.941Z,100.00
2022-08-12T05:17:28.263Z,100.00
2022-08-12T05:19:57.150Z,100.00
2022-08-12T05:22:25.683Z,100.00
2022-08-12T05:24:52.701Z,100.00
2022-08-12T05:27:19.543Z,100.00
2022-08-12T05:30:08.162Z,100.00
2022-08-12T05:32:36.845Z,100.00
2022-08-12T05:35:06.901Z,100.00
2022-08-12T05:37:34.975Z,100.00
2022-08-12T05:40:09.906Z,100.00
2022-08-12T05:42:37.862Z,100.00
2022-08-12T05:45:05.005Z,100.00
2022-08-12T05:47:44.839Z,100.00
2022-08-12T05:50:18.921Z,100.00
2022-08-12T05:52:45.607Z,100.00
2022-08-12T05:55:14.733Z,100.00
2022-08-12T05:57:41.324Z,100.00
2022-08-12T06:00:08.531Z,100.00
2022-08-12T06:02:35.805Z,100.00
2022-08-12T06:05:02.787Z,100.00
2022-08-12T06:08:00.476Z,100.00
2022-08-12T06:10:32.457Z,100.00
2022-08-12T06:13:05.329Z,100.00
2022-08-12T06:15:34.812Z,100.00
2022-08-12T06:18:15.997Z,100.00
2022-08-12T06:20:43.533Z,100.00
2022-08-12T06:23:11.870Z,100.00
2022-08-12T06:25:38.846Z,100.00
2022-08-12T06:28:15.808Z,100.00
2022-08-12T06:30:42.417Z,100.00
2022-08-12T06:33:22.123Z,100.00
2022-08-12T06:35:51.251Z,100.00
2022-08-12T06:38:25.208Z,100.00
2022-08-12T06:41:19.633Z,100.00
2022-08-12T06:44:05.725Z,100.00
2022-08-12T06:46:36.625Z,100.00
2022-08-12T06:49:03.238Z,92.25
2022-08-12T06:51:32.444Z,92.62
2022-08-12T06:54:00.595Z,93.19
2022-08-12T06:56:59.664Z,90.00
2022-08-12T06:59:15.742Z,85.94
2022-08-12T07:01:50.767Z,88.18
2022-08-12T07:04:36.743Z,89.17
2022-08-12T07:07:07.388Z,80.83
2022-08-12T07:10:00.108Z,80.81
2022-08-12T07:12:21.949Z,79.87
2022-08-12T07:14:51.596Z,79.64
2022-08-12T07:17:18.725Z,77.09
2022-08-12T07:19:48.632Z,75.67
2022-08-12T07:22:16.429Z,75.47
2022-08-12T07:24:43.324Z,77.60
2022-08-12T07:27:10.132Z,78.45
2022-08-12T07:30:03.734Z,77.25
2022-08-12T07:32:25.713Z,73.41
2022-08-12T07:34:56.556Z,75.35
2022-08-12T07:37:23.586Z,73.70
2022-08-12T07:39:59.474Z,72.99
2022-08-12T07:42:27.918Z,73.27
2022-08-12T07:44:56.014Z,70.82
2022-08-12T07:47:23.282Z,74.05
2022-08-12T07:50:04.936Z,73.22
2022-08-12T07:52:34.765Z,74.87
2022-08-12T07:55:02.216Z,73.55
2022-08-12T07:57:29.008Z,66.89
2022-08-12T07:59:56.179Z,71.22
2022-08-12T08:02:26.689Z,71.44
2022-08-12T08:04:57.430Z,71.38
2022-08-12T08:07:25.840Z,74.41
2022-08-12T08:09:59.239Z,70.40
2022-08-12T08:12:48.809Z,70.01
2022-08-12T08:15:16.425Z,64.89
2022-08-12T08:17:59.744Z,67.37
2022-08-12T08:20:30.729Z,63.78
2022-08-12T08:22:59.504Z,60.55
2022-08-12T08:25:36.630Z,60.96
2022-08-12T08:28:17.195Z,63.28
2022-08-12T08:30:47.945Z,63.09
2022-08-12T08:34:01.511Z,61.01
2022-08-12T08:36:05.219Z,60.24
2022-08-12T08:38:35.069Z,57.98
2022-08-12T08:42:15.826Z,56.81
2022-08-12T08:44:11.233Z,55.24
2022-08-12T08:46:39.141Z,54.41
2022-08-12T08:49:06.413Z,53.95
2022-08-12T08:51:33.413Z,55.62
2022-08-12T08:54:00.040Z,56.52
2022-08-12T08:56:29.270Z,56.14
2022-08-12T08:58:57.587Z,57.14
2022-08-12T09:01:24.386Z,54.80
2022-08-12T09:05:08.963Z,55.65
2022-08-12T09:06:41.848Z,53.06
2022-08-12T09:09:13.419Z,53.96
2022-08-12T09:12:11.607Z,52.17
2022-08-12T09:14:47.141Z,51.74
2022-08-12T09:17:20.971Z,51.18
2022-08-12T09:19:57.523Z,51.70
2022-08-12T09:22:29.290Z,50.32
2022-08-12T09:27:57.904Z,47.91
2022-08-12T09:30:41.127Z,47.91
2022-08-12T09:33:15.134Z,48.58
2022-08-12T09:36:04.141Z,48.09
2022-08-12T09:38:35.163Z,48.46
2022-08-12T09:42:33.858Z,48.01
2022-08-12T09:44:38.189Z,46.96
2022-08-12T09:46:55.227Z,44.24
2022-08-12T09:49:25.109Z,42.39
2022-08-12T09:51:55.361Z,41.51
2022-08-12T09:54:34.301Z,43.60
2022-08-12T09:58:45.471Z,43.43
2022-08-12T10:00:16.499Z,43.04
2022-08-12T10:03:32.694Z,41.38
2022-08-12T10:06:27.961Z,41.51
2022-08-12T10:08:52.232Z,41.18
2022-08-12T10:12:11.511Z,41.67
2022-08-12T10:14:34.559Z,41.96
2022-08-12T10:17:02.433Z,41.68
2022-08-12T10:19:36.564Z,40.41
2022-08-12T10:22:16.612Z,40.78
2022-08-12T10:25:04.843Z,40.81
2022-08-12T10:28:05.289Z,40.75
2022-08-12T10:30:41.762Z,39.83
2022-08-12T10:33:19.260Z,40.95
2022-08-12T10:35:55.588Z,40.61
2022-08-12T10:38:34.509Z,40.51
2022-08-12T10:41:58.874Z,40.08
2022-08-12T10:44:12.539Z,39.68
2022-08-12T10:46:46.013Z,40.61
2022-08-12T10:50:02.381Z,40.78
2022-08-12T10:52:34.726Z,40.77
2022-08-12T10:54:56.144Z,40.37
2022-08-12T10:58:27.167Z,41.09
2022-08-12T11:00:34.503Z,40.82
2022-08-12T11:04:27.483Z,40.82
2022-08-12T11:07:06.905Z,39.65
2022-08-12T11:08:42.855Z,40.98
2022-08-12T11:11:17.659Z,41.40
2022-08-12T11:13:54.899Z,39.59
2022-08-12T11:16:27.709Z,39.11
2022-08-12T11:18:57.097Z,38.36
2022-08-12T11:21:58.031Z,37.98
2022-08-12T11:24:25.673Z,37.99
2022-08-12T11:26:58.605Z,36.78
2022-08-12T11:29:28.018Z,36.55
2022-08-12T11:32:14.606Z,36.59
2022-08-12T11:34:52.451Z,36.10
2022-08-12T11:37:26.202Z,35.88
2022-08-12T11:42:36.557Z,36.53
2022-08-12T11:45:10.381Z,37.57
2022-08-12T11:47:40.314Z,37.32
2022-08-12T11:50:07.752Z,35.64
2022-08-12T11:52:55.524Z,36.76
2022-08-12T11:55:23.331Z,37.00
2022-08-12T11:58:08.648Z,38.04
2022-08-12T12:03:41.590Z,39.46
2022-08-12T12:06:16.897Z,38.18
2022-08-12T12:08:52.961Z,38.59
2022-08-12T12:11:21.508Z,39.33
2022-08-12T12:14:07.630Z,39.49
2022-08-12T12:16:38.154Z,39.58
2022-08-12T12:19:06.829Z,39.74
2022-08-12T12:21:47.627Z,39.19
2022-08-12T12:24:20.885Z,39.96
2022-08-12T12:27:00.345Z,37.79
2022-08-12T12:30:18.007Z,37.24
2022-08-12T12:32:18.399Z,37.64
2022-08-12T12:35:14.210Z,37.60
2022-08-12T12:38:05.025Z,37.24
2022-08-12T12:40:19.259Z,38.06
2022-08-12T12:42:57.760Z,37.73
2022-08-12T12:45:32.368Z,36.23
2022-08-12T12:48:11.506Z,37.00
2022-08-12T12:51:22.277Z,38.08
2022-08-12T12:54:06.949Z,38.58
2022-08-12T12:56:38.350Z,39.72
2022-08-12T12:59:05.992Z,39.90
2022-08-12T13:01:38.290Z,39.92
2022-08-12T13:04:12.394Z,40.62
2022-08-12T13:06:42.096Z,40.37
2022-08-12T13:09:13.207Z,40.18
2022-08-12T13:11:42.010Z,40.82
2022-08-12T13:14:29.657Z,39.62
2022-08-12T13:17:03.615Z,39.49
2022-08-12T13:19:37.530Z,38.88
2022-08-12T13:22:18.573Z,38.48
2022-08-12T13:24:46.344Z,38.28
2022-08-12T13:27:20.952Z,37.48
2022-08-12T13:29:47.520Z,38.28
2022-08-12T13:32:19.874Z,38.80
2022-08-12T13:35:04.703Z,38.83
2022-08-12T13:37:55.797Z,38.69
2022-08-12T13:40:27.804Z,37.83
2022-08-12T13:42:58.935Z,39.40
2022-08-12T13:45:27.062Z,40.46
2022-08-12T13:48:00.009Z,41.74
2022-08-12T13:50:33.858Z,41.57
2022-08-12T13:53:23.146Z,41.85
2022-08-12T13:56:01.277Z,42.39
2022-08-12T13:58:32.787Z,42.24
2022-08-12T14:01:04.668Z,41.89
2022-08-12T14:03:51.033Z,42.61
2022-08-12T14:06:17.888Z,41.89
2022-08-12T14:08:45.402Z,41.71
2022-08-12T14:11:16.927Z,41.66
2022-08-12T14:14:05.504Z,42.29
2022-08-12T14:16:37.693Z,43.31
2022-08-12T14:19:25.570Z,42.12
2022-08-12T14:22:00.741Z,41.96
2022-08-12T14:24:35.610Z,42.69
2022-08-12T14:27:03.005Z,41.72
2022-08-12T14:29:55.772Z,41.57
2022-08-12T14:32:18.103Z,42.28
2022-08-12T14:34:49.100Z,41.81
2022-08-12T14:37:56.367Z,42.45
2022-08-12T14:40:04.074Z,42.73
2022-08-12T14:42:30.707Z,42.60
2022-08-12T14:44:59.476Z,43.40
2022-08-12T14:47:26.931Z,43.31
2022-08-12T14:50:33.969Z,42.99
2022-08-12T14:58:20.574Z,43.79
2022-08-12T15:01:07.245Z,44.04
2022-08-12T15:03:52.826Z,44.05
2022-08-12T15:06:44.647Z,44.48
2022-08-12T15:09:12.020Z,44.03
2022-08-12T15:11:54.355Z,42.20
2022-08-12T15:14:26.654Z,43.12
2022-08-12T15:16:54.178Z,43.60
2022-08-12T15:20:31.955Z,43.68
2022-08-12T15:22:38.340Z,43.86
2022-08-12T15:24:54.219Z,43.66
2022-08-12T15:27:22.517Z,43.75
2022-08-12T15:30:07.927Z,43.03
2022-08-12T15:32:34.912Z,43.74
2022-08-12T15:35:01.702Z,44.16
2022-08-12T15:38:08.728Z,44.16
2022-08-12T15:40:15.447Z,43.67
2022-08-12T15:43:00.767Z,44.16
2022-08-12T15:45:32.181Z,44.09
2022-08-12T15:48:04.524Z,44.24
2022-08-12T15:50:45.578Z,43.01
2022-08-12T15:53:37.371Z,43.25
2022-08-12T15:56:07.941Z,42.90
2022-08-12T15:58:43.699Z,41.83
2022-08-12T16:01:15.127Z,42.57
2022-08-12T16:04:00.487Z,42.29
2022-08-12T16:06:52.072Z,42.52
2022-08-12T16:09:21.739Z,42.49
2022-08-12T16:11:48.514Z,45.08
2022-08-12T16:14:16.064Z,42.93
2022-08-12T16:16:43.145Z,42.59
2022-08-12T16:20:03.803Z,43.17
2022-08-12T16:22:07.191Z,43.45
2022-08-12T16:24:42.407Z,43.23
2022-08-12T16:27:09.988Z,43.65
2022-08-12T16:29:53.348Z,44.00
2022-08-12T16:32:24.020Z,44.49
2022-08-12T16:34:54.929Z,44.33
2022-08-12T16:37:22.825Z,44.84
2022-08-12T16:40:04.888Z,44.69
2022-08-12T16:42:42.039Z,45.24
2022-08-12T16:47:58.981Z,45.78
2022-08-12T16:50:31.283Z,46.06
2022-08-12T16:53:03.312Z,46.48
2022-08-12T16:55:42.216Z,47.30
2022-08-12T16:58:18.472Z,47.89
2022-08-12T17:00:55.335Z,48.07
2022-08-12T17:03:28.877Z,48.55
2022-08-12T17:05:57.103Z,48.87
2022-08-12T17:08:29.105Z,49.17
2022-08-12T17:10:56.396Z,49.28
2022-08-12T17:13:26.157Z,49.54
2022-08-12T17:16:05.546Z,49.58
2022-08-12T17:18:42.807Z,49.78
2022-08-12T17:21:11.931Z,49.90
2022-08-12T17:23:48.394Z,50.57
2022-08-12T17:26:30.859Z,50.38
2022-08-12T17:28:59.904Z,50.62
2022-08-12T17:32:01.101Z,50.77
2022-08-12T17:34:35.930Z,50.83
2022-08-12T17:37:06.286Z,51.63
2022-08-12T17:40:12.098Z,53.05
2022-08-12T17:42:32.931Z,52.57
2022-08-12T17:45:17.557Z,51.64
2022-08-12T17:48:00.967Z,52.23
2022-08-12T17:50:33.129Z,52.51
2022-08-12T17:53:03.114Z,52.53
2022-08-12T17:55:44.344Z,53.22
2022-08-12T17:58:15.096Z,51.76
2022-08-12T18:00:48.049Z,52.09
2022-08-12T18:03:57.106Z,52.34
2022-08-12T18:06:14.185Z,54.63
2022-08-12T18:08:53.653Z,52.38
2022-08-12T18:12:05.991Z,52.51
2022-08-12T18:14:29.055Z,52.53
2022-08-12T18:17:00.346Z,55.33
2022-08-12T18:19:34.072Z,53.87
2022-08-12T18:22:17.612Z,56.10
2022-08-12T18:25:00.814Z,57.55
2022-08-12T18:27:44.705Z,59.30
2022-08-12T18:30:21.067Z,60.20
2022-08-12T18:33:03.544Z,61.08
2022-08-12T18:35:47.335Z,62.43
2022-08-12T18:38:21.874Z,63.64
2022-08-12T18:41:09.680Z,65.68
2022-08-12T18:44:00.219Z,65.34
2022-08-12T18:46:53.667Z,66.76
2022-08-12T18:49:39.178Z,68.45
2022-08-12T18:52:08.684Z,69.96
2022-08-12T18:54:52.239Z,72.24
2022-08-12T18:58:07.041Z,72.40
2022-08-12T19:00:22.293Z,72.96
2022-08-12T19:02:55.752Z,73.55
2022-08-12T19:05:53.627Z,74.73
2022-08-12T19:08:12.652Z,74.94
2022-08-12T19:10:42.467Z,76.13
2022-08-12T19:13:36.190Z,74.93
2022-08-12T19:16:10.805Z,76.16
2022-08-12T19:18:40.967Z,77.10
2022-08-12T19:21:16.689Z,75.25
2022-08-12T19:23:44.184Z,75.35
2022-08-12T19:26:12.568Z,76.53
2022-08-12T19:28:39.781Z,77.13
2022-08-12T19:31:56.301Z,77.33
2022-08-12T19:37:27.354Z,76.90
2022-08-12T19:40:09.770Z,75.29
2022-08-12T19:42:53.567Z,75.29
2022-08-12T19:45:20.984Z,73.83
2022-08-12T19:47:49.037Z,74.54
2022-08-12T19:50:20.258Z,73.40
2022-08-12T19:52:47.792Z,72.19
2022-08-12T19:55:21.468Z,71.51
2022-08-12T19:58:02.726Z,72.34
2022-08-12T20:00:31.328Z,72.92
2022-08-12T20:03:00.924Z,72.94
2022-08-12T20:06:07.103Z,72.38
2022-08-12T20:08:26.410Z,74.31
2022-08-12T20:12:12.527Z,73.58
2022-08-12T20:13:49.470Z,73.00
2022-08-12T20:16:50.745Z,74.51
2022-08-12T20:19:16.001Z,76.79
2022-08-12T20:21:43.565Z,75.74
2022-08-12T20:24:12.184Z,77.25
2022-08-12T20:26:42.507Z,78.39
2022-08-12T20:29:12.381Z,79.27
2022-08-12T20:31:41.475Z,80.16
2022-08-12T20:34:12.063Z,81.00
2022-08-12T20:36:44.592Z,83.05
2022-08-12T20:39:35.979Z,82.55
2022-08-12T20:42:07.088Z,82.63
2022-08-12T20:44:39.891Z,82.43
2022-08-12T20:47:20.160Z,83.03
2022-08-12T20:49:55.950Z,82.76
2022-08-12T20:52:29.063Z,81.42
2022-08-12T20:54:57.202Z,81.97
2022-08-12T20:57:24.092Z,80.90
2022-08-12T20:59:52.595Z,80.85
2022-08-12T21:02:24.774Z,79.62
2022-08-12T21:05:19.969Z,79.27
2022-08-12T21:07:52.174Z,78.14
2022-08-12T21:10:20.970Z,77.73
2022-08-12T21:12:49.082Z,77.84
2022-08-12T21:15:23.018Z,78.42
2022-08-12T21:18:09.262Z,76.09
2022-08-12T21:20:43.205Z,77.02
2022-08-12T21:23:10.565Z,76.27
2022-08-12T21:25:45.725Z,75.64
2022-08-12T21:28:14.337Z,76.21
2022-08-12T21:31:11.760Z,76.25
2022-08-12T21:33:32.174Z,76.00
2022-08-12T21:36:22.569Z,76.25
2022-08-12T21:38:51.250Z,76.43
2022-08-12T21:41:20.370Z,75.92
2022-08-12T21:43:50.476Z,76.51
2022-08-12T21:46:33.760Z,76.98
2022-08-12T21:49:04.784Z,76.93
2022-08-12T21:51:50.302Z,77.40
2022-08-12T21:54:24.828Z,77.66
2022-08-12T21:56:54.034Z,79.33
2022-08-12T21:59:21.957Z,77.94
2022-08-12T22:01:49.593Z,78.24
2022-08-12T22:04:36.305Z,78.28
2022-08-12T22:07:03.922Z,79.04
2022-08-12T22:09:42.680Z,79.55
2022-08-12T22:12:29.344Z,79.63
2022-08-12T22:14:55.977Z,81.25
2022-08-12T22:17:49.517Z,82.04
2022-08-12T22:20:18.027Z,82.88
2022-08-12T22:22:56.317Z,84.65
2022-08-12T22:25:27.894Z,85.96
2022-08-12T22:28:13.058Z,83.45
2022-08-12T22:30:59.489Z,85.03
2022-08-12T22:33:26.188Z,86.08
2022-08-12T22:35:59.468Z,87.80
2022-08-12T22:38:29.144Z,88.23
2022-08-12T22:41:00.959Z,88.66
2022-08-12T22:43:59.717Z,88.99
2022-08-12T22:46:53.530Z,90.99
2022-08-12T22:49:37.018Z,91.53
2022-08-12T22:52:18.282Z,93.38
2022-08-12T22:54:58.053Z,95.88
2022-08-12T22:57:49.183Z,96.67
2022-08-12T23:00:24.423Z,97.35
2022-08-12T23:02:59.312Z,97.40
2022-08-12T23:05:56.686Z,98.00
2022-08-12T23:08:22.037Z,99.37
2022-08-12T23:10:49.013Z,95.85
2022-08-12T23:13:43.143Z,93.12
2022-08-12T23:16:28.362Z,92.04
2022-08-12T23:19:01.838Z,87.53
2022-08-12T23:22:05.764Z,87.19
2022-08-12T23:24:38.541Z,87.63
2022-08-12T23:27:35.184Z,87.43
2022-08-12T23:30:18.740Z,88.55
2022-08-12T23:32:46.790Z,88.91
2022-08-12T23:35:22.568Z,89.73
2022-08-12T23:37:53.715Z,89.37
2022-08-12T23:40:24.609Z,86.95
2022-08-12T23:42:54.331Z,87.61
2022-08-12T23:45:31.660Z,88.46
2022-08-12T23:48:01.999Z,89.91
2022-08-12T23:50:34.125Z,87.73
2022-08-12T23:53:06.593Z,86.33
2022-08-12T23:55:45.716Z,88.30
2022-08-12T23:58:20.959Z,88.24
